Time;durP1;ratioP1;P1;durP2;ratioP2;P2;SDS_P1;SDS_P2;PMS_P1;PMS_P2;Temp;Humidity;BMP_temperature;BMP_pressure;BME280_temperature;BME280_humidity;BME280_pressure;Samples;Min_cycle;Max_cycle;Signal;HPM_P1;HPM_P2
2021/05/13 00:00:21;;;;;;;2.22;0.82;;;;;;;;;;5045137;28;20040;-61
2021/05/13 00:02:47;;;;;;;1.75;0.88;;;;;;;;;;5037668;28;20030;-61
2021/05/13 00:05:12;;;;;;;0.98;0.80;;;;;;;;;;5036073;28;20042;-61
2021/05/13 00:07:38;;;;;;;2.60;0.98;;;;;;;;;;5034943;28;20041;-60
2021/05/13 00:10:08;;;;;;;2.60;0.90;;;;;;;;;;5034822;28;20453;-61
2021/05/13 00:15:05;;;;;;;2.85;0.93;;;;;;;;;;5035613;28;20033;-61
2021/05/13 00:17:32;;;;;;;2.65;0.95;;;;;;;;;;5033614;28;20102;-60
2021/05/13 00:19:57;;;;;;;1.02;0.90;;;;;;;;;;5038478;28;20033;-61
2021/05/13 00:22:24;;;;;;;2.47;1.08;;;;;;;;;;5033909;28;20482;-61
2021/05/13 00:24:50;;;;;;;1.75;1.00;;;;;;;;;;5037970;28;20120;-60
2021/05/13 00:27:15;;;;;;;3.33;1.05;;;;;;;;;;5035245;28;20087;-61
2021/05/13 00:29:41;;;;;;;1.40;1.00;;;;;;;;;;5017544;28;20038;-61
2021/05/13 00:32:06;;;;;;;1.48;0.90;;;;;;;;;;5036250;28;20049;-61
2021/05/13 00:34:32;;;;;;;3.40;1.17;;;;;;;;;;5069716;28;20441;-61
2021/05/13 00:36:57;;;;;;;1.55;0.90;;;;;;;;;;5036493;28;20029;-60
2021/05/13 00:39:23;;;;;;;1.77;1.00;;;;;;;;;;5037740;28;20068;-60
2021/05/13 00:41:48;;;;;;;2.65;1.00;;;;;;;;;;5035240;28;20034;-60
2021/05/13 00:44:14;;;;;;;1.60;1.00;;;;;;;;;;5036614;28;20105;-61
2021/05/13 00:46:39;;;;;;;1.05;0.80;;;;;;;;;;5036220;28;20041;-60
2021/05/13 00:49:08;;;;;;;2.40;1.17;;;;;;;;;;5035250;28;21107;-60
2021/05/13 00:51:35;;;;;;;1.52;1.00;;;;;;;;;;5033889;28;20044;-61
2021/05/13 00:54:00;;;;;;;1.70;0.95;;;;;;;;;;5030675;28;20080;-61
2021/05/13 00:56:29;;;;;;;2.55;1.33;;;;;;;;;;5033633;28;20169;-60
2021/05/13 00:58:56;;;;;;;1.08;0.80;;;;;;;;;;5033445;28;20108;-61
2021/05/13 01:01:23;;;;;;;1.42;1.02;;;;;;;;;;5037906;28;20029;-60
2021/05/13 01:03:48;;;;;;;1.25;0.95;;;;;;;;;;5033428;28;20044;-61
2021/05/13 01:06:14;;;;;;;1.65;0.80;;;;;;;;;;5063758;28;20034;-61
2021/05/13 01:08:41;;;;;;;1.20;0.88;;;;;;;;;;5015232;28;20156;-61
2021/05/13 01:11:09;;;;;;;1.48;0.80;;;;;;;;;;5032000;28;20096;-61
2021/05/13 01:13:36;;;;;;;1.10;0.90;;;;;;;;;;5034839;28;20036;-61
2021/05/13 01:16:22;;;;;;;2.75;1.00;;;;;;;;;;5032290;27;20188;-60
2021/05/13 01:18:48;;;;;;;1.48;1.10;;;;;;;;;;5049677;28;20710;-60
2021/05/13 01:21:13;;;;;;;1.00;0.90;;;;;;;;;;5031873;28;20112;-61
2021/05/13 01:23:39;;;;;;;1.83;1.10;;;;;;;;;;5031954;28;20034;-60
2021/05/13 01:26:05;;;;;;;1.20;0.90;;;;;;;;;;5034211;28;20579;-61
2021/05/13 01:28:30;;;;;;;1.35;0.93;;;;;;;;;;5032949;28;20769;-61
2021/05/13 01:30:56;;;;;;;1.70;1.17;;;;;;;;;;5032470;28;20073;-61
2021/05/13 01:33:23;;;;;;;1.00;0.90;;;;;;;;;;5032636;28;20044;-61
2021/05/13 01:35:49;;;;;;;1.75;1.17;;;;;;;;;;5032391;28;20043;-60
2021/05/13 01:38:16;;;;;;;1.55;1.05;;;;;;;;;;5030756;28;20627;-60
2021/05/13 01:41:02;;;;;;;1.80;0.88;;;;;;;;;;5032510;28;20025;-61
2021/05/13 01:43:29;;;;;;;2.03;0.90;;;;;;;;;;5031642;28;20143;-61
2021/05/13 01:45:54;;;;;;;2.80;1.10;;;;;;;;;;5033453;28;20040;-61
2021/05/13 01:48:20;;;;;;;1.27;0.95;;;;;;;;;;5064261;28;20029;-61
2021/05/13 01:50:46;;;;;;;1.85;1.00;;;;;;;;;;5030966;28;20038;-61
2021/05/13 01:53:12;;;;;;;2.80;1.20;;;;;;;;;;5032177;28;20021;-61
2021/05/13 01:55:37;;;;;;;1.10;0.90;;;;;;;;;;5062488;27;20449;-61
2021/05/13 01:58:03;;;;;;;1.23;0.82;;;;;;;;;;5051146;28;20042;-61
2021/05/13 02:00:28;;;;;;;0.77;0.77;;;;;;;;;;5031520;28;20034;-61
2021/05/13 02:02:54;;;;;;;2.00;1.20;;;;;;;;;;5030790;28;20068;-60
2021/05/13 02:05:20;;;;;;;2.83;1.40;;;;;;;;;;5031588;28;20402;-61
2021/05/13 02:07:46;;;;;;;3.45;1.30;;;;;;;;;;5033021;28;20112;-61
2021/05/13 02:10:12;;;;;;;2.25;1.10;;;;;;;;;;5047038;28;20044;-60
2021/05/13 02:12:38;;;;;;;2.10;1.20;;;;;;;;;;5032298;28;20529;-60
2021/05/13 02:15:11;;;;;;;3.75;1.30;;;;;;;;;;5030806;28;20037;-61
2021/05/13 02:17:37;;;;;;;2.30;1.35;;;;;;;;;;5029896;28;20077;-61
2021/05/13 02:20:07;;;;;;;2.55;1.40;;;;;;;;;;5064161;28;20389;-61
2021/05/13 02:22:32;;;;;;;2.90;1.30;;;;;;;;;;5032901;28;20471;-61
2021/05/13 02:24:58;;;;;;;1.90;1.10;;;;;;;;;;5029942;28;20038;-61
2021/05/13 02:27:23;;;;;;;3.08;1.40;;;;;;;;;;5032463;28;20057;-60
2021/05/13 02:29:49;;;;;;;3.08;1.40;;;;;;;;;;5031663;28;20042;-61
2021/05/13 02:32:14;;;;;;;1.67;1.23;;;;;;;;;;5032388;28;20030;-60
2021/05/13 02:34:40;;;;;;;3.17;1.40;;;;;;;;;;5032374;28;20033;-61
2021/05/13 02:37:05;;;;;;;1.85;1.10;;;;;;;;;;5030761;28;20038;-61
2021/05/13 02:39:31;;;;;;;2.53;1.20;;;;;;;;;;5031449;28;20042;-60
2021/05/13 02:41:56;;;;;;;3.67;1.42;;;;;;;;;;5031664;28;20042;-61
2021/05/13 02:44:21;;;;;;;3.65;1.30;;;;;;;;;;5062393;27;20595;-61
2021/05/13 02:46:47;;;;;;;3.78;1.20;;;;;;;;;;5029316;28;20041;-60
2021/05/13 02:49:12;;;;;;;2.15;1.20;;;;;;;;;;5030082;28;20030;-61
2021/05/13 02:51:38;;;;;;;3.35;1.10;;;;;;;;;;5031770;28;20034;-60
2021/05/13 02:54:04;;;;;;;2.42;1.10;;;;;;;;;;5031965;28;20034;-60
2021/05/13 02:56:29;;;;;;;1.95;0.93;;;;;;;;;;5029307;28;20041;-61
2021/05/13 02:58:55;;;;;;;1.48;1.20;;;;;;;;;;5030814;28;20075;-60
2021/05/13 03:01:29;;;;;;;3.70;1.30;;;;;;;;;;5063502;28;20044;-60
2021/05/13 03:03:55;;;;;;;1.95;1.20;;;;;;;;;;5032009;28;20045;-60
2021/05/13 03:06:21;;;;;;;3.28;1.52;;;;;;;;;;5015810;28;20813;-61
2021/05/13 03:08:51;;;;;;;2.67;1.27;;;;;;;;;;5063859;28;20037;-60
2021/05/13 03:11:16;;;;;;;2.97;1.20;;;;;;;;;;5030035;28;20049;-60
2021/05/13 03:13:43;;;;;;;1.50;1.00;;;;;;;;;;5035930;28;20072;-61
2021/05/13 03:16:08;;;;;;;5.68;1.30;;;;;;;;;;5032027;28;20069;-61
2021/05/13 03:18:34;;;;;;;1.50;1.10;;;;;;;;;;5061756;27;20092;-61
2021/05/13 03:23:38;;;;;;;2.42;1.20;;;;;;;;;;5031319;28;20611;-61
2021/05/13 03:26:04;;;;;;;1.90;1.05;;;;;;;;;;5031017;28;20465;-60
2021/05/13 03:28:30;;;;;;;1.30;1.00;;;;;;;;;;5030434;28;20038;-61
2021/05/13 03:30:55;;;;;;;2.95;1.15;;;;;;;;;;5028307;28;21036;-60
2021/05/13 03:33:21;;;;;;;2.20;1.10;;;;;;;;;;5030133;28;20034;-61
2021/05/13 03:35:46;;;;;;;2.58;1.17;;;;;;;;;;5033407;28;20045;-61
2021/05/13 03:38:12;;;;;;;1.90;1.08;;;;;;;;;;5031025;28;20061;-61
2021/05/13 03:40:39;;;;;;;1.67;1.05;;;;;;;;;;5030205;28;20033;-61
2021/05/13 03:43:05;;;;;;;2.55;1.17;;;;;;;;;;5030081;28;20931;-61
2021/05/13 03:45:30;;;;;;;1.48;1.10;;;;;;;;;;5045968;28;20084;-60
2021/05/13 03:47:56;;;;;;;1.67;1.08;;;;;;;;;;5026382;28;20038;-61
2021/05/13 03:50:21;;;;;;;2.47;1.10;;;;;;;;;;5028231;28;20042;-61
2021/05/13 03:52:47;;;;;;;2.35;1.10;;;;;;;;;;5029082;28;20093;-61
2021/05/13 03:55:12;;;;;;;3.25;1.30;;;;;;;;;;5017478;28;20041;-61
2021/05/13 03:57:39;;;;;;;2.25;0.80;;;;;;;;;;5029491;28;20042;-61
2021/05/13 04:00:09;;;;;;;1.83;0.95;;;;;;;;;;5029069;28;20034;-61
2021/05/13 04:02:35;;;;;;;1.40;1.10;;;;;;;;;;5044268;28;20045;-61
2021/05/13 04:05:01;;;;;;;1.67;0.90;;;;;;;;;;5032706;28;20573;-61
2021/05/13 04:07:30;;;;;;;1.10;0.85;;;;;;;;;;5037455;28;20034;-61
2021/05/13 04:09:56;;;;;;;2.97;1.20;;;;;;;;;;5021518;28;20104;-61
2021/05/13 04:12:22;;;;;;;1.33;0.88;;;;;;;;;;5012579;28;20038;-61
2021/05/13 04:14:48;;;;;;;1.63;1.00;;;;;;;;;;5029279;28;20038;-61
2021/05/13 04:17:13;;;;;;;1.80;1.10;;;;;;;;;;5029554;28;20458;-60
2021/05/13 04:19:39;;;;;;;1.08;0.98;;;;;;;;;;5028841;28;20155;-60
2021/05/13 04:22:04;;;;;;;2.03;1.20;;;;;;;;;;5029334;28;20046;-61
2021/05/13 04:24:30;;;;;;;1.17;0.73;;;;;;;;;;5029429;28;20029;-61
2021/05/13 04:26:55;;;;;;;1.27;0.80;;;;;;;;;;5030321;28;20550;-61
2021/05/13 04:29:21;;;;;;;1.30;0.98;;;;;;;;;;5030532;28;20042;-61
2021/05/13 04:31:46;;;;;;;1.20;0.90;;;;;;;;;;5035182;28;20034;-61
2021/05/13 04:34:12;;;;;;;2.72;0.90;;;;;;;;;;5064050;28;20409;-61
2021/05/13 04:36:37;;;;;;;1.75;1.00;;;;;;;;;;5030229;28;20070;-60
2021/05/13 04:39:04;;;;;;;4.15;1.10;;;;;;;;;;5035166;28;20105;-60
2021/05/13 04:41:31;;;;;;;6.95;1.50;;;;;;;;;;5034864;28;20044;-61
2021/05/13 04:43:57;;;;;;;2.50;1.25;;;;;;;;;;5031632;28;20060;-61
2021/05/13 04:46:25;;;;;;;4.35;1.10;;;;;;;;;;5032003;28;20057;-61
2021/05/13 04:51:17;;;;;;;2.30;1.20;;;;;;;;;;5033621;28;20042;-61
2021/05/13 04:53:43;;;;;;;1.77;1.00;;;;;;;;;;5033606;28;20899;-61
2021/05/13 04:56:09;;;;;;;2.63;0.88;;;;;;;;;;5017323;28;20092;-61
2021/05/13 04:58:34;;;;;;;3.50;1.00;;;;;;;;;;5031336;28;20052;-61
2021/05/13 05:01:00;;;;;;;3.80;1.20;;;;;;;;;;5038459;28;20076;-61
2021/05/13 05:03:25;;;;;;;4.32;1.20;;;;;;;;;;5032603;28;20041;-61
2021/05/13 05:05:51;;;;;;;3.58;1.13;;;;;;;;;;5028386;28;20481;-61
2021/05/13 05:08:16;;;;;;;3.17;1.17;;;;;;;;;;5033033;28;20075;-61
2021/05/13 05:10:42;;;;;;;5.22;1.20;;;;;;;;;;5047989;28;20062;-61
2021/05/13 05:13:07;;;;;;;2.50;1.23;;;;;;;;;;5064855;27;20030;-61
2021/05/13 05:15:33;;;;;;;3.40;1.10;;;;;;;;;;5031776;28;22992;-60
2021/05/13 05:17:58;;;;;;;1.88;1.00;;;;;;;;;;5032129;28;20545;-61
2021/05/13 05:20:23;;;;;;;3.80;1.10;;;;;;;;;;5030529;28;20034;-61
2021/05/13 05:22:49;;;;;;;1.77;0.80;;;;;;;;;;5032423;28;21115;-61
2021/05/13 05:25:14;;;;;;;3.10;0.90;;;;;;;;;;5033492;28;20033;-61
2021/05/13 05:27:40;;;;;;;2.05;0.95;;;;;;;;;;5031020;28;20044;-61
2021/05/13 05:30:06;;;;;;;3.88;1.05;;;;;;;;;;5030864;28;20029;-61
2021/05/13 05:32:31;;;;;;;1.92;0.93;;;;;;;;;;5028292;28;20076;-61
2021/05/13 05:35:00;;;;;;;1.65;1.20;;;;;;;;;;5030807;28;20075;-61
2021/05/13 05:37:26;;;;;;;1.52;0.90;;;;;;;;;;5030100;28;20633;-61
2021/05/13 05:39:51;;;;;;;3.17;1.00;;;;;;;;;;5031554;28;20072;-61
2021/05/13 05:42:17;;;;;;;1.85;1.00;;;;;;;;;;5062572;28;20097;-61
2021/05/13 05:44:42;;;;;;;2.80;1.10;;;;;;;;;;5031864;28;20048;-61
2021/05/13 05:47:08;;;;;;;1.92;1.02;;;;;;;;;;5032033;28;20045;-61
2021/05/13 05:49:33;;;;;;;1.38;0.90;;;;;;;;;;5031691;28;20034;-61
2021/05/13 05:51:59;;;;;;;2.80;1.15;;;;;;;;;;5030120;28;20040;-61
2021/05/13 05:54:24;;;;;;;1.25;0.98;;;;;;;;;;5032275;28;20033;-61
2021/05/13 05:56:49;;;;;;;1.48;0.90;;;;;;;;;;5032305;28;20087;-60
2021/05/13 05:59:15;;;;;;;2.78;1.02;;;;;;;;;;5061614;28;20046;-61
2021/05/13 06:01:40;;;;;;;1.20;0.90;;;;;;;;;;5031853;28;20509;-61
2021/05/13 06:04:08;;;;;;;3.03;1.20;;;;;;;;;;5028409;28;20026;-61
2021/05/13 06:06:33;;;;;;;4.90;1.27;;;;;;;;;;5030390;28;21303;-60
2021/05/13 06:08:59;;;;;;;2.92;1.00;;;;;;;;;;5029831;28;20160;-61
2021/05/13 06:11:24;;;;;;;1.20;0.68;;;;;;;;;;5032247;28;20696;-61
2021/05/13 06:13:50;;;;;;;1.55;0.65;;;;;;;;;;5032012;28;20121;-61
2021/05/13 06:16:15;;;;;;;1.33;0.73;;;;;;;;;;5030196;28;20038;-61
2021/05/13 06:18:54;;;;;;;3.15;1.05;;;;;;;;;;5035933;28;20049;-61
2021/05/13 06:21:20;;;;;;;3.35;1.17;;;;;;;;;;5063675;28;21125;-60
2021/05/13 06:23:47;;;;;;;3.13;1.25;;;;;;;;;;5030868;28;20037;-61
2021/05/13 06:26:29;;;;;;;2.90;1.30;;;;;;;;;;5030734;28;20030;-59
2021/05/13 06:28:55;;;;;;;4.10;1.40;;;;;;;;;;5030788;28;20458;-59
2021/05/13 06:31:21;;;;;;;3.90;1.20;;;;;;;;;;5032173;28;20308;-60
2021/05/13 06:33:46;;;;;;;2.10;1.10;;;;;;;;;;5064008;28;20048;-59
2021/05/13 06:36:12;;;;;;;3.28;1.30;;;;;;;;;;5031468;28;20060;-59
2021/05/13 06:38:37;;;;;;;2.28;1.10;;;;;;;;;;5031226;28;20037;-59
2021/05/13 06:41:05;;;;;;;4.57;1.30;;;;;;;;;;5031349;28;20409;-59
2021/05/13 06:43:32;;;;;;;3.33;2.92;;;;;;;;;;5032539;28;20030;-60
2021/05/13 06:45:57;;;;;;;5.22;3.10;;;;;;;;;;5032211;28;20037;-60
2021/05/13 06:48:23;;;;;;;3.65;2.90;;;;;;;;;;5030222;28;20038;-59
2021/05/13 06:50:48;;;;;;;3.60;3.08;;;;;;;;;;5032964;28;20107;-59
2021/05/13 06:53:14;;;;;;;4.00;3.28;;;;;;;;;;5030582;28;20046;-60
2021/05/13 06:55:39;;;;;;;4.80;3.17;;;;;;;;;;5032055;28;20038;-60
2021/05/13 06:58:05;;;;;;;4.78;3.30;;;;;;;;;;5062730;28;20497;-60
2021/05/13 07:00:30;;;;;;;4.15;3.00;;;;;;;;;;5031489;28;20486;-60
2021/05/13 07:02:56;;;;;;;4.97;3.45;;;;;;;;;;5031411;28;20033;-60
2021/05/13 07:05:21;;;;;;;3.75;3.10;;;;;;;;;;5030031;28;20084;-61
2021/05/13 07:07:47;;;;;;;4.40;3.00;;;;;;;;;;5028492;28;20029;-60
2021/05/13 07:10:12;;;;;;;4.25;3.28;;;;;;;;;;5031757;28;20500;-60
2021/05/13 07:12:38;;;;;;;4.18;3.00;;;;;;;;;;5030165;28;20038;-60
2021/05/13 07:15:04;;;;;;;4.78;2.80;;;;;;;;;;5031348;28;20474;-60
2021/05/13 07:17:30;;;;;;;3.58;2.92;;;;;;;;;;5030354;28;20068;-60
2021/05/13 07:19:55;;;;;;;4.18;3.00;;;;;;;;;;5029840;28;20048;-60
2021/05/13 07:22:21;;;;;;;4.57;3.03;;;;;;;;;;5048293;28;20041;-59
2021/05/13 07:24:50;;;;;;;4.22;2.97;;;;;;;;;;5032169;28;20505;-60
2021/05/13 07:27:16;;;;;;;3.97;3.20;;;;;;;;;;5063316;28;20048;-59
2021/05/13 07:29:41;;;;;;;4.05;3.10;;;;;;;;;;5029107;28;20045;-60
2021/05/13 07:32:07;;;;;;;3.53;3.13;;;;;;;;;;5031371;28;20343;-59
2021/05/13 07:34:33;;;;;;;3.38;3.08;;;;;;;;;;5029750;28;20034;-60
2021/05/13 07:36:58;;;;;;;3.67;3.28;;;;;;;;;;5030967;28;20030;-59
2021/05/13 07:39:24;;;;;;;4.78;3.45;;;;;;;;;;5029185;28;20090;-60
2021/05/13 07:41:49;;;;;;;4.95;3.20;;;;;;;;;;5031035;28;20045;-60
2021/05/13 07:44:15;;;;;;;4.22;3.50;;;;;;;;;;5045921;28;20030;-59
2021/05/13 07:46:42;;;;;;;3.78;3.15;;;;;;;;;;5013016;28;20413;-60
2021/05/13 07:49:08;;;;;;;5.15;3.58;;;;;;;;;;5027124;28;20026;-60
2021/05/13 07:51:33;;;;;;;3.67;3.17;;;;;;;;;;5030189;28;20048;-60
2021/05/13 07:53:59;;;;;;;3.80;2.72;;;;;;;;;;5029137;28;20038;-60
2021/05/13 07:56:24;;;;;;;4.38;2.90;;;;;;;;;;5030719;28;20044;-60
2021/05/13 07:58:50;;;;;;;5.55;3.30;;;;;;;;;;5031541;28;20045;-62
2021/05/13 08:01:15;;;;;;;4.25;3.10;;;;;;;;;;5031724;28;20429;-62
2021/05/13 08:03:41;;;;;;;5.40;3.50;;;;;;;;;;5036369;28;20049;-61
2021/05/13 08:06:06;;;;;;;4.15;3.17;;;;;;;;;;5033486;28;20401;-62
2021/05/13 08:08:32;;;;;;;3.65;3.15;;;;;;;;;;5032733;28;20136;-62
2021/05/13 08:10:57;;;;;;;5.40;3.25;;;;;;;;;;5024780;28;20390;-62
2021/05/13 08:13:23;;;;;;;4.82;3.10;;;;;;;;;;5032231;28;20041;-62
2021/05/13 08:15:48;;;;;;;4.45;3.30;;;;;;;;;;5034353;28;20766;-62
2021/05/13 08:18:14;;;;;;;4.43;3.47;;;;;;;;;;5033544;28;20486;-62
2021/05/13 08:20:39;;;;;;;4.22;3.35;;;;;;;;;;5041437;28;20055;-62
2021/05/13 08:23:06;;;;;;;4.22;3.55;;;;;;;;;;5033680;28;20403;-62
2021/05/13 08:25:32;;;;;;;5.22;3.83;;;;;;;;;;5064846;28;20048;-61
2021/05/13 08:27:57;;;;;;;4.10;3.17;;;;;;;;;;5032060;28;20040;-62
2021/05/13 08:30:23;;;;;;;5.03;3.70;;;;;;;;;;5033513;28;20128;-61
2021/05/13 08:32:49;;;;;;;4.88;3.40;;;;;;;;;;5034449;28;20037;-61
2021/05/13 08:35:14;;;;;;;4.80;3.40;;;;;;;;;;5034546;28;20488;-62
2021/05/13 08:37:40;;;;;;;4.53;3.38;;;;;;;;;;5032926;28;20189;-62
2021/05/13 08:40:06;;;;;;;4.50;3.03;;;;;;;;;;5035095;28;20033;-62
2021/05/13 08:42:33;;;;;;;4.47;3.08;;;;;;;;;;5032836;28;20064;-61
2021/05/13 08:44:58;;;;;;;4.45;2.80;;;;;;;;;;5050180;28;20033;-62
2021/05/13 08:47:24;;;;;;;4.47;2.97;;;;;;;;;;5016326;28;20057;-62
2021/05/13 08:49:49;;;;;;;4.13;2.90;;;;;;;;;;5064180;28;20040;-61
2021/05/13 08:52:19;;;;;;;4.18;3.15;;;;;;;;;;5053698;28;20550;-61
2021/05/13 08:54:59;;;;;;;4.55;2.70;;;;;;;;;;5018542;28;20037;-61
2021/05/13 08:57:24;;;;;;;4.97;3.00;;;;;;;;;;5034017;28;20575;-61
2021/05/13 08:59:50;;;;;;;4.38;2.85;;;;;;;;;;5036148;28;20041;-61
2021/05/13 09:02:16;;;;;;;3.58;2.90;;;;;;;;;;5035144;28;20037;-61
2021/05/13 09:04:43;;;;;;;4.15;3.22;;;;;;;;;;5034969;28;20033;-61
2021/05/13 09:07:21;;;;;;;4.68;2.80;;;;;;;;;;5032433;28;20025;-61
2021/05/13 09:10:06;;;;;;;4.93;3.50;;;;;;;;;;5033130;28;20104;-61
2021/05/13 09:12:45;;;;;;;5.20;2.80;;;;;;;;;;5036372;28;20042;-61
2021/05/13 09:15:12;;;;;;;4.32;2.90;;;;;;;;;;5046210;28;20048;-60
2021/05/13 09:17:38;;;;;;;4.28;3.00;;;;;;;;;;5032290;28;20510;-60
2021/05/13 09:20:05;;;;;;;4.13;2.70;;;;;;;;;;5035166;28;20036;-61
2021/05/13 09:22:31;;;;;;;3.95;2.70;;;;;;;;;;5029812;28;20042;-61
2021/05/13 09:25:00;;;;;;;4.78;3.22;;;;;;;;;;5032573;28;20033;-61
2021/05/13 09:27:42;;;;;;;6.15;3.53;;;;;;;;;;5031343;28;20033;-61
2021/05/13 09:30:24;;;;;;;4.57;3.10;;;;;;;;;;5031888;28;20042;-61
2021/05/13 09:32:57;;;;;;;4.10;3.42;;;;;;;;;;5033608;28;20034;-61
2021/05/13 09:35:33;;;;;;;4.40;3.47;;;;;;;;;;5028835;28;20080;-61
2021/05/13 09:38:12;;;;;;;3.92;3.20;;;;;;;;;;5030109;28;20462;-61
2021/05/13 09:40:38;;;;;;;4.30;2.97;;;;;;;;;;5032342;28;20165;-61
2021/05/13 09:43:26;;;;;;;2.70;2.35;;;;;;;;;;5064420;28;20030;-60
2021/05/13 09:45:53;;;;;;;4.53;2.90;;;;;;;;;;5029597;28;20507;-61
2021/05/13 09:48:39;;;;;;;3.92;2.65;;;;;;;;;;5040208;28;20497;-61
2021/05/13 09:51:17;;;;;;;4.18;2.95;;;;;;;;;;5032137;28;20030;-61
2021/05/13 09:53:43;;;;;;;5.45;2.97;;;;;;;;;;5031211;28;20096;-61
2021/05/13 09:56:25;;;;;;;2.80;2.30;;;;;;;;;;5029447;28;20450;-61
2021/05/13 09:58:51;;;;;;;3.83;2.45;;;;;;;;;;5036047;28;20049;-60
2021/05/13 10:01:17;;;;;;;5.10;3.50;;;;;;;;;;5064986;28;20064;-60
2021/05/13 10:03:43;;;;;;;3.50;2.85;;;;;;;;;;5030083;28;20085;-61
2021/05/13 10:06:10;;;;;;;3.63;2.80;;;;;;;;;;5032949;28;20037;-61
2021/05/13 10:08:36;;;;;;;3.53;2.83;;;;;;;;;;5030565;28;20052;-61
2021/05/13 10:11:02;;;;;;;4.10;2.95;;;;;;;;;;5033426;28;20082;-61
2021/05/13 10:13:30;;;;;;;4.10;2.83;;;;;;;;;;5031748;28;20108;-61
2021/05/13 10:15:56;;;;;;;4.93;3.25;;;;;;;;;;5031390;28;20034;-61
2021/05/13 10:18:24;;;;;;;4.50;2.95;;;;;;;;;;5023609;28;20471;-60
2021/05/13 10:21:04;;;;;;;5.00;3.10;;;;;;;;;;5031593;28;20108;-61
2021/05/13 10:23:29;;;;;;;4.32;3.00;;;;;;;;;;5030098;28;20116;-61
2021/05/13 10:25:55;;;;;;;3.63;2.90;;;;;;;;;;5029033;28;20038;-60
2021/05/13 10:28:26;;;;;;;4.00;2.88;;;;;;;;;;5032162;28;20109;-61
2021/05/13 10:31:04;;;;;;;4.80;2.90;;;;;;;;;;5033004;28;20037;-60
2021/05/13 10:33:50;;;;;;;3.65;2.42;;;;;;;;;;5030646;28;20049;-61
2021/05/13 10:36:19;;;;;;;3.25;2.40;;;;;;;;;;5025800;28;20037;-61
2021/05/13 10:38:52;;;;;;;3.35;2.53;;;;;;;;;;5040129;28;20518;-61
2021/05/13 10:41:37;;;;;;;4.68;2.97;;;;;;;;;;5030860;28;20896;-61
2021/05/13 10:44:05;;;;;;;3.83;2.45;;;;;;;;;;5029749;28;20034;-61
2021/05/13 10:46:31;;;;;;;3.75;2.50;;;;;;;;;;5038072;28;20092;-61
2021/05/13 10:49:19;;;;;;;4.68;2.63;;;;;;;;;;5017157;28;20111;-61
2021/05/13 10:51:47;;;;;;;3.65;2.67;;;;;;;;;;5032664;28;20116;-60
2021/05/13 10:54:28;;;;;;;3.42;2.50;;;;;;;;;;5064742;28;20874;-61
2021/05/13 10:57:09;;;;;;;3.55;2.53;;;;;;;;;;5032078;28;20139;-61
2021/05/13 10:59:34;;;;;;;2.88;2.40;;;;;;;;;;5032479;28;20045;-60
2021/05/13 11:02:01;;;;;;;3.53;2.80;;;;;;;;;;5032730;28;20409;-60
2021/05/13 11:04:29;;;;;;;4.20;2.53;;;;;;;;;;5030008;28;20057;-61
2021/05/13 11:07:05;;;;;;;4.20;2.60;;;;;;;;;;5030714;28;20103;-61
2021/05/13 11:09:40;;;;;;;3.20;2.35;;;;;;;;;;5029076;28;20036;-61
2021/05/13 11:12:08;;;;;;;2.88;2.03;;;;;;;;;;5031803;28;20034;-61
2021/05/13 11:14:33;;;;;;;4.75;2.42;;;;;;;;;;5028117;28;20592;-61
2021/05/13 11:17:04;;;;;;;3.70;2.20;;;;;;;;;;5033822;28;20042;-61
2021/05/13 11:19:30;;;;;;;3.42;2.17;;;;;;;;;;5030042;28;20137;-61
2021/05/13 11:22:01;;;;;;;2.85;2.20;;;;;;;;;;5029972;28;20044;-61
2021/05/13 11:24:39;;;;;;;3.90;2.08;;;;;;;;;;5032288;28;20038;-60
2021/05/13 11:27:06;;;;;;;2.72;1.88;;;;;;;;;;5032437;28;20049;-60
2021/05/13 11:29:44;;;;;;;2.22;1.75;;;;;;;;;;5029905;28;20105;-61
2021/05/13 11:32:10;;;;;;;3.30;1.83;;;;;;;;;;5034080;28;20043;-61
2021/05/13 11:34:35;;;;;;;3.03;1.98;;;;;;;;;;5051286;28;20091;-61
2021/05/13 11:37:01;;;;;;;2.55;1.90;;;;;;;;;;5028998;28;20531;-60
2021/05/13 11:39:26;;;;;;;3.88;2.75;;;;;;;;;;5062962;28;20444;-61
2021/05/13 11:41:58;;;;;;;5.20;3.13;;;;;;;;;;5029639;28;20041;-60
2021/05/13 11:44:24;;;;;;;5.22;3.00;;;;;;;;;;5034943;28;20598;-61
2021/05/13 11:46:52;;;;;;;5.63;3.10;;;;;;;;;;5030930;28;20080;-61
2021/05/13 11:49:18;;;;;;;3.45;2.50;;;;;;;;;;5032060;28;20044;-60
2021/05/13 11:51:43;;;;;;;3.83;2.65;;;;;;;;;;5028758;28;20036;-60
2021/05/13 11:54:09;;;;;;;4.10;2.60;;;;;;;;;;5028620;28;20033;-61
2021/05/13 11:56:41;;;;;;;4.43;2.25;;;;;;;;;;5029561;28;20469;-61
2021/05/13 11:59:10;;;;;;;;;;;;;;;;;;5014850;28;20580;-61
2021/05/13 12:01:42;;;;;;;2.92;1.80;;;;;;;;;;5029728;28;20024;-61
2021/05/13 12:04:08;;;;;;;4.03;1.88;;;;;;;;;;5032180;28;20148;-60
2021/05/13 12:06:46;;;;;;;3.83;1.70;;;;;;;;;;5028969;28;20044;-61
2021/05/13 12:09:13;;;;;;;3.50;1.60;;;;;;;;;;5029202;28;20559;-61
2021/05/13 12:11:38;;;;;;;2.65;1.60;;;;;;;;;;5024537;28;20160;-61
2021/05/13 12:14:16;;;;;;;3.72;1.73;;;;;;;;;;5029896;28;20948;-61
2021/05/13 12:16:42;;;;;;;3.22;1.60;;;;;;;;;;5029503;28;20378;-60
2021/05/13 12:19:09;;;;;;;4.15;1.85;;;;;;;;;;5028541;28;20041;-61
2021/05/13 12:21:36;;;;;;;4.30;1.45;;;;;;;;;;5029837;28;20037;-61
2021/05/13 12:24:05;;;;;;;3.33;1.70;;;;;;;;;;5027428;28;20038;-61
2021/05/13 12:26:32;;;;;;;2.78;1.60;;;;;;;;;;5038304;28;20068;-60
2021/05/13 12:28:58;;;;;;;4.57;1.65;;;;;;;;;;5030134;28;20037;-61
2021/05/13 12:31:24;;;;;;;5.10;1.95;;;;;;;;;;5027957;28;20033;-60
2021/05/13 12:33:50;;;;;;;3.38;1.73;;;;;;;;;;5028466;28;20034;-61
2021/05/13 12:36:15;;;;;;;3.17;1.95;;;;;;;;;;5030003;28;20045;-61
2021/05/13 12:38:42;;;;;;;3.92;1.60;;;;;;;;;;5062497;28;20040;-61
2021/05/13 12:41:09;;;;;;;3.80;2.08;;;;;;;;;;5028688;28;20068;-61
2021/05/13 12:43:34;;;;;;;2.58;1.52;;;;;;;;;;5028159;28;20045;-60
2021/05/13 12:46:00;;;;;;;3.10;1.73;;;;;;;;;;5030095;28;20037;-60
2021/05/13 12:48:29;;;;;;;2.38;1.52;;;;;;;;;;5063806;28;20450;-61
2021/05/13 12:51:02;;;;;;;3.72;1.75;;;;;;;;;;5032095;28;20071;-60
2021/05/13 12:53:28;;;;;;;2.00;1.30;;;;;;;;;;5033150;28;20041;-61
2021/05/13 12:55:54;;;;;;;3.00;1.70;;;;;;;;;;5023626;28;20041;-61
2021/05/13 12:58:21;;;;;;;2.67;1.42;;;;;;;;;;5041426;28;20087;-62
2021/05/13 13:01:20;;;;;;;4.32;1.48;;;;;;;;;;5032654;28;20045;-61
2021/05/13 13:03:56;;;;;;;3.75;1.40;;;;;;;;;;5058913;28;20553;-62
2021/05/13 13:06:21;;;;;;;3.33;1.40;;;;;;;;;;5032671;28;20034;-61
2021/05/13 13:08:48;;;;;;;4.85;1.45;;;;;;;;;;5032083;28;20034;-61
2021/05/13 13:11:14;;;;;;;2.20;1.33;;;;;;;;;;5048151;28;20061;-61
2021/05/13 13:13:43;;;;;;;3.05;1.33;;;;;;;;;;5039691;28;20482;-61
2021/05/13 13:16:16;;;;;;;3.08;1.20;;;;;;;;;;5031342;28;20033;-62
2021/05/13 13:18:41;;;;;;;2.92;1.52;;;;;;;;;;5032344;28;20382;-62
2021/05/13 13:21:12;;;;;;;3.42;1.38;;;;;;;;;;5032098;28;20048;-61
2021/05/13 13:23:37;;;;;;;1.85;1.10;;;;;;;;;;5032723;28;20124;-62
2021/05/13 13:26:05;;;;;;;2.30;1.20;;;;;;;;;;5017271;28;20562;-61
2021/05/13 13:28:32;;;;;;;4.15;1.45;;;;;;;;;;5032621;28;20042;-61
2021/05/13 13:31:00;;;;;;;3.80;1.48;;;;;;;;;;5031323;28;20092;-62
2021/05/13 13:33:26;;;;;;;2.85;1.30;;;;;;;;;;5032064;28;20150;-61
2021/05/13 13:35:53;;;;;;;2.97;1.40;;;;;;;;;;5032437;28;20034;-61
2021/05/13 13:38:18;;;;;;;3.63;1.38;;;;;;;;;;5022996;28;20124;-61
2021/05/13 13:40:45;;;;;;;5.03;1.33;;;;;;;;;;5035082;28;20409;-61
2021/05/13 13:43:11;;;;;;;3.20;1.38;;;;;;;;;;5031340;28;20120;-61
2021/05/13 13:45:36;;;;;;;4.70;1.38;;;;;;;;;;5031432;28;20030;-61
2021/05/13 13:48:08;;;;;;;3.63;1.30;;;;;;;;;;5046100;28;20038;-63
2021/05/13 13:50:34;;;;;;;2.33;1.30;;;;;;;;;;5032621;28;20145;-62
2021/05/13 13:53:00;;;;;;;3.83;1.45;;;;;;;;;;5032183;28;20042;-62
2021/05/13 13:55:26;;;;;;;3.40;1.33;;;;;;;;;;5031867;28;20148;-63
2021/05/13 13:57:51;;;;;;;3.50;1.30;;;;;;;;;;5034001;28;20529;-62
2021/05/13 14:00:17;;;;;;;2.85;1.48;;;;;;;;;;5032887;28;20486;-63
2021/05/13 14:02:43;;;;;;;3.30;1.23;;;;;;;;;;5030935;28;20080;-63
2021/05/13 14:05:10;;;;;;;3.20;1.30;;;;;;;;;;5040132;28;20034;-63
2021/05/13 14:07:35;;;;;;;2.63;1.00;;;;;;;;;;5032827;28;20068;-64
2021/05/13 14:10:01;;;;;;;4.10;1.20;;;;;;;;;;5031974;28;20026;-64
2021/05/13 14:12:26;;;;;;;3.58;1.33;;;;;;;;;;5032844;28;20390;-62
2021/05/13 14:14:51;;;;;;;3.47;1.13;;;;;;;;;;5030284;28;20180;-62
2021/05/13 14:17:20;;;;;;;2.35;1.00;;;;;;;;;;5032134;28;20048;-62
2021/05/13 14:19:46;;;;;;;3.13;1.10;;;;;;;;;;5040519;28;20173;-63
2021/05/13 14:22:12;;;;;;;3.25;1.20;;;;;;;;;;5046110;28;20114;-64
2021/05/13 14:24:37;;;;;;;1.67;1.00;;;;;;;;;;5062086;28;20153;-63
2021/05/13 14:27:03;;;;;;;3.03;1.00;;;;;;;;;;5033515;28;20059;-62
2021/05/13 14:29:28;;;;;;;2.13;1.20;;;;;;;;;;5028956;28;20042;-62
2021/05/13 14:31:54;;;;;;;2.38;1.15;;;;;;;;;;5031947;28;20040;-62
2021/05/13 14:34:19;;;;;;;2.13;1.15;;;;;;;;;;5031523;28;20037;-62
2021/05/13 14:36:45;;;;;;;1.63;0.90;;;;;;;;;;5032603;28;20037;-62
2021/05/13 14:39:10;;;;;;;1.90;1.00;;;;;;;;;;5032445;28;20050;-61
2021/05/13 14:41:36;;;;;;;1.58;0.80;;;;;;;;;;5031074;28;20048;-61
2021/05/13 14:44:01;;;;;;;2.17;0.93;;;;;;;;;;5063446;28;20556;-61
2021/05/13 14:46:27;;;;;;;2.15;1.08;;;;;;;;;;5029237;28;20540;-60
2021/05/13 14:49:09;;;;;;;1.38;0.80;;;;;;;;;;5064817;28;20664;-61
2021/05/13 14:51:34;;;;;;;;;;;;;;;;;;5032113;28;20499;-63